createdAt,value
2023-02-11T00:01:44.895Z,34.20
2023-02-11T00:04:11.259Z,38.13
2023-02-11T00:06:37.879Z,31.27
2023-02-11T00:09:05.155Z,32.90
2023-02-11T00:11:31.585Z,39.50
2023-02-11T00:14:00.284Z,40.90
2023-02-11T00:16:27.812Z,43.53
2023-02-11T00:18:54.196Z,37.73
2023-02-11T00:21:25.986Z,29.37
2023-02-11T00:23:53.501Z,32.43
2023-02-11T00:26:25.532Z,39.00
2023-02-11T00:28:53.253Z,38.80
2023-02-11T00:31:21.911Z,42.87
2023-02-11T00:33:48.765Z,32.80
2023-02-11T00:36:22.274Z,39.30
2023-02-11T00:38:50.253Z,35.40
2023-02-11T00:41:17.593Z,41.47
2023-02-11T00:43:44.861Z,37.27
2023-02-11T00:46:11.781Z,37.57
2023-02-11T00:48:38.185Z,34.50
2023-02-11T00:51:05.283Z,40.53
2023-02-11T00:53:32.614Z,32.13
2023-02-11T00:55:59.063Z,36.17
2023-02-11T00:58:25.420Z,40.77
2023-02-11T01:00:52.437Z,40.63
2023-02-11T01:03:18.844Z,39.23
2023-02-11T01:05:45.234Z,39.43
2023-02-11T01:08:11.700Z,34.67
2023-02-11T01:10:38.338Z,46.13
2023-02-11T01:13:06.437Z,40.13
2023-02-11T01:15:33.454Z,42.33
2023-02-11T01:17:59.794Z,36.90
2023-02-11T01:20:27.651Z,49.90
2023-02-11T01:22:54.160Z,45.37
2023-02-11T01:25:20.512Z,37.83
2023-02-11T01:27:46.905Z,41.37
2023-02-11T01:30:14.304Z,41.27
2023-02-11T01:32:40.757Z,41.90
2023-02-11T01:35:07.674Z,50.57
2023-02-11T01:37:34.345Z,55.10
2023-02-11T01:40:10.737Z,41.00
2023-02-11T01:42:37.143Z,41.57
2023-02-11T01:45:41.817Z,45.80
2023-02-11T01:48:11.041Z,42.70
2023-02-11T01:50:40.667Z,40.07
2023-02-11T01:53:27.291Z,43.93
2023-02-11T01:56:21.255Z,39.33
2023-02-11T01:58:51.549Z,44.93
2023-02-11T02:01:23.624Z,44.23
2023-02-11T02:03:54.225Z,40.73
2023-02-11T02:06:34.653Z,43.73
2023-02-11T02:09:09.517Z,45.17
2023-02-11T02:11:36.274Z,44.47
2023-02-11T02:14:03.419Z,42.70
2023-02-11T02:16:33.620Z,39.73
2023-02-11T02:19:21.768Z,35.03
2023-02-11T02:22:18.270Z,46.33
2023-02-11T02:25:00.678Z,37.60
2023-02-11T02:27:40.090Z,40.07
2023-02-11T02:30:28.696Z,46.87
2023-02-11T02:33:24.255Z,35.97
2023-02-11T02:36:07.213Z,37.37
2023-02-11T02:38:41.680Z,40.17
2023-02-11T02:41:15.597Z,35.50
2023-02-11T02:43:45.327Z,37.63
2023-02-11T02:46:26.597Z,46.10
2023-02-11T02:48:54.581Z,43.03
2023-02-11T02:51:39.037Z,44.67
2023-02-11T02:54:30.656Z,33.63
2023-02-11T02:57:20.232Z,37.20
2023-02-11T03:00:06.848Z,42.93
2023-02-11T03:02:47.835Z,42.13
2023-02-11T03:05:17.786Z,32.70
2023-02-11T03:07:48.451Z,55.27
2023-02-11T03:10:30.082Z,41.63
2023-02-11T03:12:57.546Z,35.67
2023-02-11T03:15:27.679Z,38.03
2023-02-11T03:17:58.531Z,38.30
2023-02-11T03:20:25.635Z,43.23
2023-02-11T03:23:02.161Z,29.70
2023-02-11T03:25:34.530Z,36.90
2023-02-11T03:28:10.083Z,32.50
2023-02-11T03:30:46.827Z,47.83
2023-02-11T03:34:04.242Z,38.13
2023-02-11T03:36:46.126Z,38.83
2023-02-11T03:39:19.762Z,38.80
2023-02-11T03:41:49.166Z,28.27
2023-02-11T03:44:17.051Z,31.37
2023-02-11T03:46:50.139Z,33.30
2023-02-11T03:49:20.257Z,28.83
2023-02-11T03:51:49.391Z,34.47
2023-02-11T03:54:24.157Z,30.20
2023-02-11T03:56:53.825Z,33.20
2023-02-11T03:59:20.615Z,32.03
2023-02-11T04:01:47.185Z,34.73
2023-02-11T04:04:14.148Z,34.60
2023-02-11T04:06:40.929Z,27.90
2023-02-11T04:09:07.289Z,29.57
2023-02-11T04:11:33.738Z,36.47
2023-02-11T04:14:00.233Z,43.87
2023-02-11T04:16:26.720Z,28.20
2023-02-11T04:18:53.257Z,24.17
2023-02-11T04:21:19.581Z,30.33
2023-02-11T04:23:46.064Z,31.90
2023-02-11T04:26:12.392Z,25.43
2023-02-11T04:28:38.935Z,26.70
2023-02-11T04:31:05.589Z,35.60
2023-02-11T04:33:32.117Z,26.20
2023-02-11T04:35:58.457Z,27.63
2023-02-11T04:38:24.825Z,25.43
2023-02-11T04:40:51.369Z,31.67
2023-02-11T04:43:17.882Z,28.93
2023-02-11T04:45:44.204Z,28.93
2023-02-11T04:48:10.589Z,31.03
2023-02-11T04:50:36.929Z,22.73
2023-02-11T04:53:03.483Z,34.27
2023-02-11T04:55:29.842Z,20.30
2023-02-11T04:57:56.236Z,33.80
2023-02-11T05:00:22.820Z,27.13
2023-02-11T05:02:49.449Z,26.87
2023-02-11T05:05:15.790Z,34.03
2023-02-11T05:07:42.287Z,33.17
2023-02-11T05:10:08.875Z,33.47
2023-02-11T05:12:35.383Z,29.00
2023-02-11T05:15:01.736Z,38.33
2023-02-11T05:17:28.140Z,30.63
2023-02-11T05:19:54.465Z,24.30
2023-02-11T05:22:22.097Z,27.37
2023-02-11T05:24:48.753Z,31.20
2023-02-11T05:27:15.257Z,30.60
2023-02-11T05:29:41.596Z,36.20
2023-02-11T05:32:09.008Z,25.83
2023-02-11T05:34:36.265Z,27.33
2023-02-11T05:37:02.643Z,30.60
2023-02-11T05:39:29.177Z,28.27
2023-02-11T05:41:55.523Z,34.00
2023-02-11T05:44:21.971Z,30.20
2023-02-11T05:46:49.238Z,26.70
2023-02-11T05:49:17.064Z,24.63
2023-02-11T05:51:43.422Z,35.97
2023-02-11T05:54:09.816Z,28.73
2023-02-11T05:56:36.160Z,23.40
2023-02-11T05:59:02.744Z,37.77
2023-02-11T06:01:29.271Z,29.87
2023-02-11T06:03:55.790Z,27.80
2023-02-11T06:06:22.208Z,27.67
2023-02-11T06:08:48.839Z,26.80
2023-02-11T06:11:16.178Z,23.60
2023-02-11T06:13:42.922Z,28.87
2023-02-11T06:16:09.905Z,40.10
2023-02-11T06:18:36.450Z,23.70
2023-02-11T06:21:06.894Z,24.13
2023-02-11T06:23:33.282Z,30.13
2023-02-11T06:26:04.752Z,24.87
2023-02-11T06:28:31.738Z,27.07
2023-02-11T06:30:58.955Z,23.90
2023-02-11T06:33:25.556Z,21.07
2023-02-11T06:35:52.267Z,26.17
2023-02-11T06:38:18.834Z,25.37
2023-02-11T06:40:49.678Z,28.20
2023-02-11T06:43:16.584Z,24.77
2023-02-11T06:45:43.081Z,22.73
2023-02-11T06:48:09.598Z,26.33
2023-02-11T06:50:35.939Z,28.87
2023-02-11T06:53:02.354Z,19.60
2023-02-11T06:55:28.858Z,26.87
2023-02-11T06:57:55.219Z,28.90
2023-02-11T07:00:21.623Z,22.93
2023-02-11T07:02:47.992Z,33.60
2023-02-11T07:05:14.574Z,24.27
2023-02-11T07:07:40.918Z,23.93
2023-02-11T07:10:08.376Z,33.83
2023-02-11T07:12:34.709Z,25.63
2023-02-11T07:15:01.260Z,29.20
2023-02-11T07:17:27.605Z,22.77
2023-02-11T07:19:54.058Z,29.60
2023-02-11T07:22:20.429Z,28.70
2023-02-11T07:24:46.921Z,28.53
2023-02-11T07:27:13.444Z,29.83
2023-02-11T07:29:41.448Z,25.77
2023-02-11T07:32:07.868Z,25.97
2023-02-11T07:34:34.457Z,36.20
2023-02-11T07:37:00.827Z,34.70
2023-02-11T07:39:27.562Z,27.80
2023-02-11T07:41:54.325Z,36.43
2023-02-11T07:44:20.728Z,28.40
2023-02-11T07:46:49.482Z,31.03
2023-02-11T07:49:15.999Z,32.90
2023-02-11T07:51:42.335Z,29.57
2023-02-11T07:54:11.075Z,32.37
2023-02-11T07:56:37.445Z,30.60
2023-02-11T07:59:03.986Z,37.10
2023-02-11T08:01:31.052Z,32.67
2023-02-11T08:03:59.438Z,36.57
2023-02-11T08:06:28.113Z,33.87
2023-02-11T08:08:54.753Z,35.40
2023-02-11T08:11:26.079Z,32.20
2023-02-11T08:13:53.576Z,33.03
2023-02-11T08:16:32.484Z,34.10
2023-02-11T08:19:01.700Z,29.23
2023-02-11T08:21:28.819Z,33.50
2023-02-11T08:23:55.879Z,33.23
2023-02-11T08:26:25.473Z,30.97
2023-02-11T08:28:53.617Z,32.30
2023-02-11T08:31:23.562Z,34.90
2023-02-11T08:33:50.407Z,31.20
2023-02-11T08:36:19.681Z,33.33
2023-02-11T08:38:47.006Z,30.73
2023-02-11T08:41:16.984Z,30.60
2023-02-11T08:43:44.567Z,33.67
2023-02-11T08:46:14.197Z,33.60
2023-02-11T08:48:40.560Z,29.63
2023-02-11T08:51:14.120Z,28.33
2023-02-11T08:53:40.514Z,33.10
2023-02-11T08:56:07.347Z,30.50
2023-02-11T08:58:33.686Z,35.37
2023-02-11T09:01:00.400Z,36.00
2023-02-11T09:03:26.932Z,29.70
2023-02-11T09:05:53.462Z,30.93
2023-02-11T09:08:20.612Z,35.07
2023-02-11T09:10:47.034Z,25.73
2023-02-11T09:13:13.586Z,24.30
2023-02-11T09:15:39.960Z,26.23
2023-02-11T09:18:06.361Z,25.37
2023-02-11T09:20:32.886Z,27.90
2023-02-11T09:22:59.518Z,26.20
2023-02-11T09:25:25.983Z,32.60
2023-02-11T09:27:53.685Z,23.17
2023-02-11T09:30:20.329Z,32.20
2023-02-11T09:32:46.663Z,31.50
2023-02-11T09:35:13.257Z,27.10
2023-02-11T09:37:39.601Z,26.00
2023-02-11T09:40:06.575Z,27.93
2023-02-11T09:42:49.521Z,22.63
2023-02-11T09:45:20.549Z,22.17
2023-02-11T09:47:56.608Z,22.43
2023-02-11T09:50:29.278Z,23.50
2023-02-11T09:53:16.854Z,23.77
2023-02-11T09:55:46.864Z,21.23
2023-02-11T09:58:16.511Z,24.03
2023-02-11T10:01:05.875Z,33.13
2023-02-11T10:03:48.063Z,17.37
2023-02-11T10:06:36.593Z,29.40
2023-02-11T10:09:24.139Z,31.23
2023-02-11T10:12:02.564Z,19.13
2023-02-11T10:15:07.848Z,22.00
2023-02-11T10:18:02.112Z,23.10
2023-02-11T10:20:46.427Z,28.83
2023-02-11T10:23:22.259Z,21.30
2023-02-11T10:25:52.802Z,29.00
2023-02-11T10:28:27.966Z,29.73
2023-02-11T10:30:59.513Z,19.77
2023-02-11T10:33:34.333Z,18.30
2023-02-11T10:36:00.719Z,19.93
2023-02-11T10:38:27.783Z,18.40
2023-02-11T10:40:54.182Z,21.17
2023-02-11T10:43:26.244Z,25.97
2023-02-11T10:45:54.658Z,22.43
2023-02-11T10:48:42.704Z,27.90
2023-02-11T10:51:21.101Z,22.93
2023-02-11T10:54:11.960Z,20.87
2023-02-11T10:56:44.492Z,19.60
2023-02-11T10:59:30.433Z,20.07
2023-02-11T11:02:04.284Z,31.30
2023-02-11T11:04:30.641Z,18.40
2023-02-11T11:07:10.597Z,21.83
2023-02-11T11:09:55.747Z,16.10
2023-02-11T11:12:48.402Z,22.30
2023-02-11T11:15:21.938Z,14.53
2023-02-11T11:18:20.990Z,22.40
2023-02-11T11:21:00.775Z,22.13
2023-02-11T11:23:29.787Z,22.47
2023-02-11T11:26:08.242Z,11.57
2023-02-11T11:28:46.919Z,14.20
2023-02-11T11:31:18.967Z,13.67
2023-02-11T11:33:47.388Z,14.07
2023-02-11T11:36:19.855Z,18.07
2023-02-11T11:38:52.374Z,10.03
2023-02-11T11:41:32.879Z,12.50
2023-02-11T11:44:00.792Z,19.33
2023-02-11T11:46:31.474Z,15.37
2023-02-11T11:49:12.182Z,11.27
2023-02-11T11:51:41.919Z,24.50
2023-02-11T11:54:13.905Z,12.90
2023-02-11T11:56:54.696Z,16.27
2023-02-11T11:59:22.220Z,15.00
2023-02-11T12:01:48.552Z,18.07
2023-02-11T12:04:28.723Z,20.33
2023-02-11T12:07:13.563Z,17.90
2023-02-11T12:10:04.983Z,20.47
2023-02-11T12:12:46.782Z,23.03
2023-02-11T12:15:29.865Z,17.03
2023-02-11T12:18:36.030Z,13.60
2023-02-11T12:21:24.729Z,13.27
2023-02-11T12:24:03.252Z,12.50
2023-02-11T12:26:42.470Z,11.53
2023-02-11T12:29:24.187Z,16.00
2023-02-11T12:32:07.911Z,17.20
2023-02-11T12:34:55.347Z,12.80
2023-02-11T12:37:30.623Z,14.20
2023-02-11T12:40:18.461Z,21.43
2023-02-11T12:43:18.687Z,11.17
2023-02-11T12:46:11.769Z,11.63
2023-02-11T12:48:51.432Z,10.17
2023-02-11T12:51:42.048Z,15.37
2023-02-11T12:54:19.754Z,18.40
2023-02-11T12:57:35.645Z,14.87
2023-02-11T13:00:05.047Z,10.97
2023-02-11T13:02:56.168Z,16.10
2023-02-11T13:05:25.050Z,13.33
2023-02-11T13:08:14.108Z,17.43
2023-02-11T13:10:43.140Z,14.03
2023-02-11T13:13:20.972Z,17.70
2023-02-11T13:16:07.665Z,19.57
2023-02-11T13:18:49.425Z,16.87
2023-02-11T13:21:15.827Z,12.53
2023-02-11T13:24:07.552Z,18.97
2023-02-11T13:26:47.458Z,10.07
2023-02-11T13:29:32.441Z,15.67
2023-02-11T13:32:11.595Z,15.83
2023-02-11T13:34:43.846Z,19.37
2023-02-11T13:37:26.593Z,25.70
2023-02-11T13:40:23.784Z,21.57
2023-02-11T13:42:57.024Z,16.60
2023-02-11T13:45:29.175Z,19.90
2023-02-11T13:48:01.336Z,12.37
2023-02-11T13:50:30.291Z,27.53
2023-02-11T13:53:00.641Z,32.60
2023-02-11T13:55:27.943Z,31.17
2023-02-11T13:58:06.208Z,19.90
2023-02-11T14:00:35.660Z,19.30
2023-02-11T14:03:29.766Z,41.00
2023-02-11T14:06:26.810Z,18.63
2023-02-11T14:08:59.499Z,17.00
2023-02-11T14:12:14.472Z,32.47
2023-02-11T14:15:20.590Z,26.93
2023-02-11T14:17:47.166Z,25.07
2023-02-11T14:20:34.484Z,24.03
2023-02-11T14:23:01.186Z,20.47
2023-02-11T14:25:27.576Z,23.73
2023-02-11T14:28:04.825Z,24.77
2023-02-11T14:30:44.251Z,21.07
2023-02-11T14:33:25.954Z,22.73
2023-02-11T14:36:33.658Z,23.73
2023-02-11T14:39:25.104Z,26.40
2023-02-11T14:41:52.529Z,16.27
2023-02-11T14:44:27.842Z,29.13
2023-02-11T14:46:55.017Z,26.37
2023-02-11T14:49:28.686Z,21.77
2023-02-11T14:52:17.072Z,37.13
2023-02-11T14:54:45.199Z,25.03
2023-02-11T14:57:20.085Z,18.33
2023-02-11T14:59:55.168Z,43.27
2023-02-11T15:02:26.096Z,28.33
2023-02-11T15:04:52.590Z,30.73
2023-02-11T15:07:18.950Z,39.70
2023-02-11T15:09:52.630Z,19.57
2023-02-11T15:12:27.965Z,25.23
2023-02-11T15:15:00.411Z,21.83
2023-02-11T15:17:31.765Z,31.10
2023-02-11T15:20:01.757Z,38.57
2023-02-11T15:22:32.965Z,23.37
2023-02-11T15:25:10.612Z,31.00
2023-02-11T15:27:42.138Z,21.67
2023-02-11T15:30:23.484Z,28.03
2023-02-11T15:33:00.612Z,24.07
2023-02-11T15:35:40.896Z,29.87
2023-02-11T15:38:07.630Z,21.50
2023-02-11T15:40:36.783Z,20.40
2023-02-11T15:43:06.355Z,23.00
2023-02-11T15:45:34.475Z,25.83
2023-02-11T15:48:24.251Z,21.93
2023-02-11T15:50:58.663Z,25.97
2023-02-11T15:53:29.888Z,28.63
2023-02-11T15:56:14.611Z,31.07
2023-02-11T15:58:43.559Z,32.60
2023-02-11T16:01:10.824Z,32.03
2023-02-11T16:03:37.415Z,34.37
2023-02-11T16:06:17.287Z,61.70
2023-02-11T16:08:56.492Z,25.13
2023-02-11T16:11:33.548Z,50.20
2023-02-11T16:14:01.507Z,45.10
2023-02-11T16:16:31.590Z,27.03
2023-02-11T16:19:06.079Z,41.80
2023-02-11T16:21:45.225Z,37.73
2023-02-11T16:24:21.296Z,35.63
2023-02-11T16:26:50.312Z,38.27
2023-02-11T16:29:21.952Z,26.27
2023-02-11T16:31:50.248Z,43.80
2023-02-11T16:34:25.435Z,36.73
2023-02-11T16:36:52.756Z,29.60
2023-02-11T16:39:22.338Z,40.30
2023-02-11T16:41:50.629Z,35.43
2023-02-11T16:44:17.752Z,39.10
2023-02-11T16:46:44.858Z,23.63
2023-02-11T16:49:22.586Z,27.80
2023-02-11T16:51:51.709Z,22.53
2023-02-11T16:54:19.191Z,33.53
2023-02-11T16:56:45.909Z,38.50
2023-02-11T16:59:12.698Z,34.27
2023-02-11T17:01:40.969Z,26.40
2023-02-11T17:04:13.087Z,26.07
2023-02-11T17:06:39.465Z,26.23
2023-02-11T17:09:06.705Z,31.17
2023-02-11T17:11:33.127Z,31.10
2023-02-11T17:13:59.448Z,34.60
2023-02-11T17:16:27.632Z,25.27
2023-02-11T17:18:54.749Z,46.63
2023-02-11T17:21:21.125Z,24.07
2023-02-11T17:23:47.460Z,49.27
2023-02-11T17:26:13.832Z,33.17
2023-02-11T17:28:40.207Z,32.73
2023-02-11T17:31:08.529Z,41.90
2023-02-11T17:33:36.249Z,31.50
2023-02-11T17:36:07.710Z,41.63
2023-02-11T17:38:35.252Z,34.13
2023-02-11T17:41:03.111Z,47.83
2023-02-11T17:43:29.479Z,43.73
2023-02-11T17:45:56.075Z,40.90
2023-02-11T17:48:22.441Z,42.10
2023-02-11T17:50:48.858Z,44.03
2023-02-11T17:53:15.425Z,30.07
2023-02-11T17:55:42.114Z,29.97
2023-02-11T17:58:08.443Z,29.57
2023-02-11T18:00:34.824Z,36.10
2023-02-11T18:03:03.800Z,28.47
2023-02-11T18:05:34.772Z,45.23
2023-02-11T18:08:01.145Z,47.67
2023-02-11T18:10:27.632Z,38.83
2023-02-11T18:12:54.078Z,33.37
2023-02-11T18:15:20.474Z,47.60
2023-02-11T18:17:46.827Z,25.87
2023-02-11T18:20:13.636Z,39.83
2023-02-11T18:22:40.918Z,34.30
2023-02-11T18:25:08.685Z,30.57
2023-02-11T18:27:35.102Z,31.17
2023-02-11T18:30:01.508Z,35.10
2023-02-11T18:32:27.897Z,37.47
2023-02-11T18:34:54.275Z,39.10
2023-02-11T18:37:20.706Z,38.13
2023-02-11T18:39:47.090Z,40.13
2023-02-11T18:42:13.635Z,41.57
2023-02-11T18:44:40.334Z,62.17
2023-02-11T18:47:06.902Z,25.27
2023-02-11T18:49:35.580Z,46.43
2023-02-11T18:52:02.560Z,35.00
2023-02-11T18:54:28.908Z,40.30
2023-02-11T18:56:55.271Z,30.10
2023-02-11T18:59:21.609Z,43.97
2023-02-11T19:01:48.148Z,42.30
2023-02-11T19:04:19.626Z,34.77
2023-02-11T19:06:49.444Z,52.07
2023-02-11T19:09:19.338Z,36.07
2023-02-11T19:11:54.131Z,36.60
2023-02-11T19:14:26.541Z,33.37
2023-02-11T19:16:56.300Z,39.83
2023-02-11T19:19:25.676Z,48.30
2023-02-11T19:21:52.406Z,30.40
2023-02-11T19:24:19.779Z,32.50
2023-02-11T19:26:48.085Z,33.87
2023-02-11T19:29:14.804Z,40.53
2023-02-11T19:31:41.698Z,48.40
2023-02-11T19:34:08.202Z,40.43
2023-02-11T19:36:34.984Z,34.40
2023-02-11T19:39:02.779Z,31.40
2023-02-11T19:41:29.778Z,29.27
2023-02-11T19:43:56.716Z,35.37
2023-02-11T19:46:24.811Z,37.33
2023-02-11T19:48:52.013Z,30.10
2023-02-11T19:51:19.364Z,40.70
2023-02-11T19:53:46.653Z,35.17
2023-02-11T19:56:14.355Z,39.60
2023-02-11T19:58:41.754Z,66.37
2023-02-11T20:01:15.134Z,43.97
2023-02-11T20:03:42.673Z,42.57
2023-02-11T20:06:14.759Z,34.53
2023-02-11T20:08:41.497Z,46.53
2023-02-11T20:11:10.974Z,39.03
2023-02-11T20:13:38.305Z,41.20
2023-02-11T20:16:13.903Z,41.43
2023-02-11T20:18:40.630Z,52.43
2023-02-11T20:21:12.983Z,48.03
2023-02-11T20:23:40.624Z,51.83
2023-02-11T20:26:09.090Z,46.17
2023-02-11T20:28:36.432Z,38.50
2023-02-11T20:31:04.136Z,40.57
2023-02-11T20:33:31.199Z,43.90
2023-02-11T20:36:00.497Z,53.10
2023-02-11T20:38:27.975Z,53.50
2023-02-11T20:40:55.108Z,41.80
2023-02-11T20:43:22.333Z,53.10
2023-02-11T20:45:48.921Z,41.23
2023-02-11T20:48:15.354Z,46.30
2023-02-11T20:50:41.722Z,50.57
2023-02-11T20:53:08.138Z,42.37
2023-02-11T20:55:38.100Z,38.00
2023-02-11T20:58:07.954Z,44.17
2023-02-11T21:00:35.549Z,39.97
2023-02-11T21:03:01.934Z,56.13
2023-02-11T21:05:30.911Z,34.30
2023-02-11T21:07:57.388Z,25.90
2023-02-11T21:10:23.795Z,40.20
2023-02-11T21:12:50.149Z,36.00
2023-02-11T21:15:16.896Z,39.20
2023-02-11T21:17:43.226Z,53.27
2023-02-11T21:20:10.132Z,40.40
2023-02-11T21:22:36.557Z,27.20
2023-02-11T21:25:03.058Z,37.60
2023-02-11T21:27:33.161Z,28.23
2023-02-11T21:30:01.330Z,35.63
2023-02-11T21:32:28.046Z,33.07
2023-02-11T21:34:54.445Z,27.20
2023-02-11T21:37:21.220Z,28.20
2023-02-11T21:39:47.606Z,31.83
2023-02-11T21:42:13.949Z,29.33
2023-02-11T21:44:40.473Z,27.03
2023-02-11T21:47:06.907Z,27.30
2023-02-11T21:49:33.359Z,24.07
2023-02-11T21:52:00.031Z,24.40
2023-02-11T21:54:31.887Z,26.00
2023-02-11T21:56:59.654Z,20.23
2023-02-11T21:59:26.049Z,23.23
2023-02-11T22:01:52.382Z,26.83
2023-02-11T22:04:18.824Z,21.90
2023-02-11T22:06:45.250Z,25.97
2023-02-11T22:09:11.641Z,29.23
2023-02-11T22:11:38.365Z,29.23
2023-02-11T22:14:05.352Z,19.90
2023-02-11T22:16:31.805Z,20.60
2023-02-11T22:18:58.890Z,24.73
2023-02-11T22:21:25.627Z,28.87
2023-02-11T22:23:52.108Z,24.30
2023-02-11T22:26:21.837Z,13.83
2023-02-11T22:28:49.088Z,15.40
2023-02-11T22:31:18.125Z,21.37
2023-02-11T22:33:45.063Z,13.50
2023-02-11T22:36:25.994Z,12.30
2023-02-11T22:38:53.715Z,9.10
2023-02-11T22:41:20.802Z,10.83
2023-02-11T22:43:48.093Z,19.87
2023-02-11T22:46:16.703Z,14.30
2023-02-11T22:48:43.803Z,10.40
2023-02-11T22:51:12.820Z,13.67
2023-02-11T22:53:39.201Z,14.53
2023-02-11T22:56:08.198Z,14.33
2023-02-11T22:58:36.049Z,8.03
2023-02-11T23:01:03.256Z,20.43
2023-02-11T23:03:31.125Z,8.03
2023-02-11T23:05:59.269Z,9.80
2023-02-11T23:08:26.789Z,7.00
2023-02-11T23:10:53.423Z,7.63
2023-02-11T23:13:19.865Z,9.23
2023-02-11T23:15:47.403Z,11.00
2023-02-11T23:18:14.263Z,7.07
2023-02-11T23:20:43.530Z,6.27
2023-02-11T23:23:09.875Z,7.73
2023-02-11T23:25:44.374Z,10.07
2023-02-11T23:28:11.870Z,6.93
2023-02-11T23:30:39.352Z,6.80
2023-02-11T23:33:05.850Z,8.13
2023-02-11T23:35:32.289Z,7.17
2023-02-11T23:37:58.697Z,12.53
2023-02-11T23:40:25.074Z,8.13
2023-02-11T23:42:51.656Z,10.50
2023-02-11T23:45:18.117Z,7.43
2023-02-11T23:47:45.025Z,9.27
2023-02-11T23:50:11.596Z,6.20
2023-02-11T23:52:37.925Z,9.07
2023-02-11T23:55:04.815Z,8.13
2023-02-11T23:57:34.658Z,7.43
